Time;durP1;ratioP1;P1;durP2;ratioP2;P2;SDS_P1;SDS_P2;PMS_P1;PMS_P2;Temp;Humidity;BMP_temperature;BMP_pressure;BME280_temperature;BME280_humidity;BME280_pressure;Samples;Min_cycle;Max_cycle;Signal;HPM_P1;HPM_P2
2022/04/01 00:01:37;;;;;;;21.33;10.13;;;;;5.70;94124.00;;;;8343245;28;20605;-72
2022/04/01 00:05:41;;;;;;;19.93;9.67;;;;;5.70;94116.00;;;;8345713;28;20234;-68
2022/04/01 00:09:44;;;;;;;16.37;9.93;;;;;5.70;94115.00;;;;8345888;28;20857;-70
2022/04/01 00:13:48;;;;;;;22.87;10.30;;;;;5.60;94122.00;;;;8345531;28;20232;-70
2022/04/01 00:17:54;;;;;;;24.60;11.40;;;;;5.60;94114.00;;;;8344435;28;20226;-68
2022/04/01 00:21:57;;;;;;;30.23;12.60;;;;;5.60;94114.00;;;;8347521;28;20232;-72
2022/04/01 00:26:00;;;;;;;23.47;10.63;;;;;5.60;94111.00;;;;8342113;28;21019;-72
2022/04/01 00:30:05;;;;;;;35.13;13.17;;;;;5.50;94118.00;;;;8349274;28;20619;-73
2022/04/01 00:34:18;;;;;;;34.80;14.23;;;;;5.50;94109.00;;;;8346392;28;20707;-72
2022/04/01 00:38:22;;;;;;;24.57;10.93;;;;;5.50;94108.00;;;;8355058;28;20230;-70
2022/04/01 00:42:25;;;;;;;23.10;11.53;;;;;5.50;94110.00;;;;8354735;28;20238;-69
2022/04/01 00:46:29;;;;;;;28.17;12.60;;;;;5.50;94108.00;;;;8353930;28;20254;-70
2022/04/01 00:50:34;;;;;;;30.07;12.53;;;;;5.40;94106.00;;;;8334549;28;20230;-71
2022/04/01 00:54:37;;;;;;;23.00;10.77;;;;;5.40;94106.00;;;;8362073;28;20679;-73
2022/04/01 00:58:41;;;;;;;30.20;11.43;;;;;5.30;94106.00;;;;8336913;28;20238;-69
2022/04/01 01:02:44;;;;;;;20.37;9.50;;;;;5.30;94105.00;;;;8353024;28;20228;-69
2022/04/01 01:06:50;;;;;;;25.50;11.73;;;;;5.30;94113.00;;;;8349909;28;20296;-70
2022/04/01 01:10:53;;;;;;;32.63;12.37;;;;;5.30;94111.00;;;;8350782;28;20227;-70
2022/04/01 01:14:56;;;;;;;36.80;14.43;;;;;5.30;94110.00;;;;8351903;28;20222;-70
2022/04/01 01:19:01;;;;;;;36.93;14.67;;;;;5.30;94102.00;;;;8345697;28;20831;-70
2022/04/01 01:23:06;;;;;;;32.60;12.37;;;;;5.20;94099.00;;;;8348591;28;20306;-69
2022/04/01 01:27:13;;;;;;;32.53;12.30;;;;;5.20;94094.00;;;;8356032;28;20227;-70
2022/04/01 01:31:17;;;;;;;28.17;10.27;;;;;5.20;94095.00;;;;8352589;28;20239;-68
2022/04/01 01:35:20;;;;;;;24.70;10.27;;;;;5.20;94094.00;;;;8353628;28;20251;-69
2022/04/01 01:39:23;;;;;;;20.93;9.63;;;;;5.20;94093.00;;;;8353949;28;20228;-70
2022/04/01 01:43:29;;;;;;;15.03;8.27;;;;;5.20;94088.00;;;;8355868;28;20957;-70
2022/04/01 01:47:32;;;;;;;24.77;11.47;;;;;5.10;94086.00;;;;8351449;28;20236;-70
2022/04/01 01:55:56;;;;;;;27.40;10.13;;;;;5.10;94087.00;;;;8352461;28;20325;-72
2022/04/01 02:00:10;;;;;;;16.00;7.50;;;;;5.10;94084.00;;;;8353307;28;20592;-73
2022/04/01 02:04:14;;;;;;;15.97;7.93;;;;;5.10;94081.00;;;;8350077;28;20222;-71
2022/04/01 02:08:17;;;;;;;19.47;8.63;;;;;5.10;94078.00;;;;8347207;28;20245;-71
2022/04/01 02:12:21;;;;;;;33.87;11.17;;;;;5.10;94078.00;;;;8355547;28;20242;-71
2022/04/01 02:16:25;;;;;;;18.10;7.80;;;;;5.00;94075.00;;;;8349344;28;20237;-71
2022/04/01 02:20:31;;;;;;;25.07;9.67;;;;;5.00;94079.00;;;;8351333;28;20259;-71
2022/04/01 02:24:36;;;;;;;23.60;9.10;;;;;5.00;94074.00;;;;8354245;28;20821;-72
2022/04/01 02:28:39;;;;;;;18.90;8.73;;;;;4.90;94083.00;;;;8354282;28;20581;-72
2022/04/01 02:32:44;;;;;;;13.37;7.33;;;;;4.90;94075.00;;;;8349400;28;20306;-73
2022/04/01 02:36:47;;;;;;;12.63;6.97;;;;;4.80;94076.00;;;;8361347;28;20223;-72
2022/04/01 02:40:50;;;;;;;21.37;7.60;;;;;4.90;94079.00;;;;8351084;28;20248;-72
2022/04/01 02:44:53;;;;;;;20.60;8.53;;;;;4.90;94084.00;;;;8350548;28;20241;-71
2022/04/01 02:48:58;;;;;;;17.30;7.40;;;;;4.80;94078.00;;;;8352109;28;20234;-72
2022/04/01 02:53:01;;;;;;;15.17;7.33;;;;;4.70;94091.00;;;;8335885;28;20229;-72
2022/04/01 02:57:05;;;;;;;18.03;7.50;;;;;4.70;94090.00;;;;8347592;28;20591;-72
2022/04/01 03:01:08;;;;;;;22.40;9.07;;;;;4.70;94092.00;;;;8380268;22;20233;-72
2022/04/01 03:05:13;;;;;;;19.67;8.27;;;;;4.60;94091.00;;;;8370231;22;20242;-72
2022/04/01 03:09:16;;;;;;;19.07;7.10;;;;;4.60;94087.00;;;;8341374;28;20762;-72
2022/04/01 03:13:19;;;;;;;17.67;8.10;;;;;4.60;94091.00;;;;8341400;28;20232;-73
2022/04/01 03:17:22;;;;;;;20.57;8.63;;;;;4.50;94090.00;;;;8345994;28;20230;-72
2022/04/01 03:21:29;;;;;;;13.40;5.87;;;;;4.50;94086.00;;;;8345632;28;20576;-73
2022/04/01 03:25:33;;;;;;;22.87;8.90;;;;;4.40;94084.00;;;;8345462;28;20238;-73
2022/04/01 03:29:36;;;;;;;0.40;0.40;;;;;4.40;94087.00;;;;8346323;28;20686;-74
2022/04/01 03:33:39;;;;;;;0.70;0.70;;;;;4.40;94088.00;;;;8344826;28;20218;-70
2022/04/01 03:37:46;;;;;;;0.60;0.60;;;;;4.50;94091.00;;;;8345118;28;20226;-69
2022/04/01 03:41:50;;;;;;;0.40;0.40;;;;;4.40;94087.00;;;;8344681;28;20234;-69
2022/04/01 03:45:55;;;;;;;0.50;0.50;;;;;4.40;94092.00;;;;8344753;28;20224;-69
2022/04/01 03:50:01;;;;;;;0.40;0.40;;;;;4.40;94091.00;;;;8345375;28;20281;-71
2022/04/01 03:54:06;;;;;;;0.40;0.40;;;;;4.40;94084.00;;;;8340487;28;20271;-71
2022/04/01 03:58:13;;;;;;;0.40;0.40;;;;;4.40;94085.00;;;;8343829;28;20231;-70
2022/04/01 04:02:16;;;;;;;0.40;0.40;;;;;4.40;94095.00;;;;8337475;28;20240;-69
2022/04/01 04:06:20;;;;;;;0.40;0.40;;;;;4.40;94084.00;;;;8347454;28;20238;-70
2022/04/01 04:10:27;;;;;;;1.03;1.03;;;;;4.30;94098.00;;;;8349250;28;20226;-70
2022/04/01 04:14:32;;;;;;;0.40;0.40;;;;;4.30;94090.00;;;;8348817;28;20220;-70
2022/04/01 04:18:42;;;;;;;0.40;0.40;;;;;4.30;94095.00;;;;8346645;28;20616;-70
2022/04/01 04:23:03;;;;;;;0.50;0.50;;;;;4.30;94100.00;;;;8346062;28;20242;-70
2022/04/01 04:27:11;;;;;;;0.40;0.40;;;;;4.20;94099.00;;;;8349366;28;20310;-71
2022/04/01 04:31:15;;;;;;;0.43;0.43;;;;;4.20;94100.00;;;;8351606;28;20228;-71
2022/04/01 04:35:23;;;;;;;0.40;0.40;;;;;4.20;94102.00;;;;8343297;28;20257;-71
2022/04/01 04:39:32;;;;;;;0.40;0.40;;;;;4.20;94111.00;;;;8343705;28;20239;-71
2022/04/01 04:43:41;;;;;;;1.53;0.67;;;;;4.20;94117.00;;;;8344143;28;20232;-69
2022/04/01 04:47:46;;;;;;;0.40;0.40;;;;;4.10;94119.00;;;;8335732;28;20230;-69
2022/04/01 04:51:49;;;;;;;0.40;0.40;;;;;4.10;94115.00;;;;8346180;28;20404;-68
2022/04/01 04:55:53;;;;;;;0.40;0.40;;;;;4.00;94122.00;;;;8350465;28;20246;-69
2022/04/01 05:00:00;;;;;;;0.40;0.40;;;;;4.00;94123.00;;;;8346871;28;20309;-70
2022/04/01 05:04:17;;;;;;;0.63;0.63;;;;;3.90;94129.00;;;;8333857;28;20948;-69
2022/04/01 05:08:41;;;;;;;0.50;0.50;;;;;3.80;94124.00;;;;8346130;28;20242;-68
2022/04/01 05:12:57;;;;;;;0.40;0.40;;;;;3.80;94134.00;;;;8344970;28;20644;-68
2022/04/01 05:17:05;;;;;;;0.47;0.47;;;;;3.80;94125.00;;;;8338971;28;20236;-70
2022/04/01 05:21:19;;;;;;;0.40;0.40;;;;;3.80;94133.00;;;;8347876;28;20225;-73
2022/04/01 05:25:25;;;;;;;0.50;0.50;;;;;3.80;94141.00;;;;8341800;28;20346;-69
2022/04/01 05:29:35;;;;;;;0.40;0.40;;;;;3.80;94136.00;;;;8346763;28;20224;-69
2022/04/01 05:33:46;;;;;;;0.50;0.50;;;;;3.80;94140.00;;;;8341087;28;20227;-69
2022/04/01 05:37:49;;;;;;;3.50;2.93;;;;;3.80;94143.00;;;;8343496;28;20222;-70
2022/04/01 05:41:54;;;;;;;0.40;0.40;;;;;3.80;94160.00;;;;8341706;28;20627;-70
2022/04/01 05:45:58;;;;;;;0.40;0.40;;;;;3.80;94161.00;;;;8345619;28;20229;-71
2022/04/01 05:50:03;;;;;;;0.40;0.40;;;;;3.80;94155.00;;;;8345647;28;20230;-70
2022/04/01 05:54:08;;;;;;;0.87;0.87;;;;;3.80;94170.00;;;;8342791;28;20265;-71
2022/04/01 05:58:11;;;;;;;0.40;0.40;;;;;3.70;94173.00;;;;8336426;28;20238;-72
2022/04/01 06:02:33;;;;;;;0.40;0.40;;;;;3.60;94173.00;;;;8336109;28;20284;-71
2022/04/01 06:06:41;;;;;;;0.40;0.40;;;;;3.50;94190.00;;;;8340691;28;20223;-69
2022/04/01 06:10:57;;;;;;;0.50;0.50;;;;;3.50;94181.00;;;;8340688;28;20264;-71
2022/04/01 06:15:06;;;;;;;0.40;0.40;;;;;3.50;94183.00;;;;8340597;28;20229;-71
2022/04/01 06:19:21;;;;;;;0.40;0.40;;;;;3.50;94188.00;;;;8342534;28;20263;-70
2022/04/01 06:23:31;;;;;;;0.50;0.50;;;;;3.50;94196.00;;;;8344651;28;20241;-69
2022/04/01 06:27:39;;;;;;;0.73;0.73;;;;;3.50;94185.00;;;;8339164;28;20854;-69
2022/04/01 06:31:53;;;;;;;0.40;0.40;;;;;3.40;94194.00;;;;8342815;28;20562;-70
2022/04/01 06:36:00;;;;;;;0.40;0.40;;;;;3.40;94202.00;;;;8335761;28;20234;-70
2022/04/01 06:40:10;;;;;;;0.40;0.40;;;;;3.40;94209.00;;;;8341236;28;20221;-70
2022/04/01 06:44:13;;;;;;;0.40;0.40;;;;;3.40;94210.00;;;;8347923;28;20230;-69
2022/04/01 06:48:17;;;;;;;0.40;0.40;;;;;3.30;94206.00;;;;8345209;28;20627;-70
2022/04/01 06:52:20;;;;;;;0.40;0.40;;;;;3.30;94214.00;;;;8339894;28;20687;-70
2022/04/01 06:56:25;;;;;;;0.40;0.40;;;;;3.30;94219.00;;;;8344646;28;20234;-71
2022/04/01 07:00:29;;;;;;;1.13;1.13;;;;;3.30;94220.00;;;;8342849;28;20722;-75
2022/04/01 07:04:33;;;;;;;0.40;0.40;;;;;3.30;94228.00;;;;8342193;28;20272;-75
2022/04/01 07:08:41;;;;;;;0.40;0.40;;;;;3.20;94226.00;;;;8343210;28;20232;-75
2022/04/01 07:13:10;;;;;;;0.50;0.50;;;;;3.10;94218.00;;;;8327293;28;20217;-77
2022/04/01 07:17:18;;;;;;;0.43;0.43;;;;;3.10;94225.00;;;;8316688;28;20264;-72
2022/04/01 07:21:24;;;;;;;0.40;0.40;;;;;3.10;94231.00;;;;8290685;28;20253;-71
2022/04/01 07:25:31;;;;;;;1.43;1.43;;;;;3.10;94227.00;;;;8332299;28;20229;-71
2022/04/01 07:29:35;;;;;;;0.50;0.50;;;;;3.10;94232.00;;;;8342208;28;20237;-70
2022/04/01 07:33:39;;;;;;;0.50;0.50;;;;;3.20;94233.00;;;;8343646;28;20715;-72
2022/04/01 07:37:43;;;;;;;0.47;0.47;;;;;3.10;94231.00;;;;8344754;28;20383;-71
2022/04/01 07:41:55;;;;;;;1.07;1.07;;;;;3.10;94231.00;;;;8343292;28;20238;-72
2022/04/01 07:46:00;;;;;;;0.70;0.70;;;;;3.10;94228.00;;;;8339242;28;20330;-72
2022/04/01 07:50:12;;;;;;;0.40;0.40;;;;;3.10;94227.00;;;;8339365;28;20222;-72
2022/04/01 07:54:19;;;;;;;0.40;0.40;;;;;3.20;94231.00;;;;8332806;28;20234;-73
2022/04/01 07:58:23;;;;;;;0.40;0.40;;;;;3.30;94234.00;;;;8342397;28;20222;-73
2022/04/01 08:02:30;;;;;;;0.40;0.40;;;;;3.30;94253.00;;;;8340483;28;20260;-74
2022/04/01 08:06:36;;;;;;;0.40;0.40;;;;;3.30;94240.00;;;;8342562;28;20233;-74
2022/04/01 08:10:40;;;;;;;0.40;0.40;;;;;3.40;94237.00;;;;8339333;28;20329;-76
2022/04/01 08:14:43;;;;;;;0.40;0.40;;;;;3.40;94249.00;;;;8344600;28;20305;-75
2022/04/01 08:18:48;;;;;;;0.40;0.40;;;;;3.50;94245.00;;;;8344500;28;20781;-74
2022/04/01 08:22:51;;;;;;;0.60;0.60;;;;;3.70;94249.00;;;;8342174;28;20226;-74
2022/04/01 08:26:56;;;;;;;0.40;0.40;;;;;3.70;94257.00;;;;8343847;28;20650;-74
2022/04/01 08:30:59;;;;;;;0.40;0.40;;;;;3.80;94256.00;;;;8340555;28;20309;-74
2022/04/01 08:35:04;;;;;;;0.80;0.80;;;;;3.90;94259.00;;;;8342011;28;20230;-74
2022/04/01 08:39:07;;;;;;;0.40;0.40;;;;;4.00;94274.00;;;;8337863;28;20621;-74
2022/04/01 08:43:11;;;;;;;0.40;0.40;;;;;4.00;94277.00;;;;8342240;28;20234;-75
2022/04/01 08:47:15;;;;;;;0.40;0.40;;;;;4.20;94273.00;;;;8343583;28;20324;-74
2022/04/01 08:51:19;;;;;;;0.40;0.40;;;;;4.20;94287.00;;;;8343449;28;20239;-78
2022/04/01 08:55:23;;;;;;;0.40;0.40;;;;;4.30;94278.00;;;;8349675;28;20226;-75
2022/04/01 08:59:28;;;;;;;0.40;0.40;;;;;4.40;94287.00;;;;8349543;28;20226;-75
2022/04/01 09:03:32;;;;;;;0.40;0.40;;;;;4.50;94296.00;;;;8348520;28;20240;-75
2022/04/01 09:07:38;;;;;;;0.40;0.40;;;;;4.50;94289.00;;;;8347343;28;20863;-76
2022/04/01 09:11:41;;;;;;;0.40;0.40;;;;;4.50;94284.00;;;;8350368;28;20310;-80
2022/04/01 09:15:45;;;;;;;0.40;0.40;;;;;4.60;94293.00;;;;8349040;28;20237;-75
2022/04/01 09:19:49;;;;;;;0.40;0.40;;;;;4.60;94293.00;;;;8345635;28;20310;-78
2022/04/01 09:23:54;;;;;;;0.40;0.40;;;;;4.70;94289.00;;;;8347304;28;20231;-77
2022/04/01 09:27:57;;;;;;;0.40;0.40;;;;;4.70;94300.00;;;;8350606;28;20219;-78
2022/04/01 09:32:08;;;;;;;0.30;0.30;;;;;4.80;94301.00;;;;8348878;28;20231;-78
2022/04/01 09:36:14;;;;;;;0.30;0.30;;;;;4.90;94300.00;;;;8344387;28;20224;-78
2022/04/01 09:40:21;;;;;;;0.30;0.30;;;;;5.00;94315.00;;;;8346379;28;20227;-77
2022/04/01 09:44:26;;;;;;;0.40;0.40;;;;;5.00;94313.00;;;;8346085;28;20224;-78
2022/04/01 09:48:30;;;;;;;0.40;0.40;;;;;5.00;94314.00;;;;8342091;28;20226;-77
2022/04/01 09:52:37;;;;;;;0.40;0.40;;;;;5.10;94329.00;;;;8344157;28;20425;-76
2022/04/01 09:56:43;;;;;;;1.50;0.60;;;;;5.20;94322.00;;;;8343772;28;20229;-77
2022/04/01 10:00:47;;;;;;;0.40;0.40;;;;;5.20;94324.00;;;;8343126;28;20227;-76
2022/04/01 10:04:50;;;;;;;0.30;0.30;;;;;5.20;94324.00;;;;8342451;28;20234;-75
2022/04/01 10:08:56;;;;;;;0.40;0.40;;;;;5.20;94333.00;;;;8345773;28;20233;-76
2022/04/01 10:13:03;;;;;;;0.40;0.40;;;;;5.40;94327.00;;;;8343571;28;20756;-81
2022/04/01 10:17:10;;;;;;;0.40;0.40;;;;;5.50;94334.00;;;;8345619;28;20254;-82
2022/04/01 10:21:15;;;;;;;0.40;0.40;;;;;5.40;94330.00;;;;8345620;28;20243;-83
2022/04/01 10:25:23;;;;;;;0.40;0.40;;;;;5.30;94332.00;;;;8343446;28;20236;-81
2022/04/01 10:29:29;;;;;;;0.40;0.40;;;;;5.30;94345.00;;;;8346653;28;20714;-81
2022/04/01 10:33:35;;;;;;;0.40;0.40;;;;;5.40;94329.00;;;;8347140;28;20226;-82
2022/04/01 10:37:39;;;;;;;0.97;0.97;;;;;5.80;94321.00;;;;8347612;28;20303;-82
2022/04/01 10:42:10;;;;;;;0.40;0.40;;;;;5.70;94319.00;;;;8348721;28;20234;-82
2022/04/01 10:46:17;;;;;;;0.40;0.40;;;;;5.60;94325.00;;;;8342490;28;20258;-82
2022/04/01 10:54:46;;;;;;;0.47;0.47;;;;;5.50;94339.00;;;;8345305;28;20362;-83
2022/04/01 10:59:02;;;;;;;0.40;0.40;;;;;5.60;94332.00;;;;8344692;28;20239;-81
2022/04/01 11:03:25;;;;;;;0.30;0.30;;;;;5.50;94348.00;;;;8346151;28;20645;-85
2022/04/01 11:07:33;;;;;;;0.40;0.40;;;;;5.40;94341.00;;;;8344153;28;20797;-82
2022/04/01 11:11:37;;;;;;;0.40;0.40;;;;;5.40;94347.00;;;;8344788;28;20231;-81
2022/04/01 11:15:40;;;;;;;0.40;0.40;;;;;5.50;94334.00;;;;8344049;28;20232;-81
2022/04/01 11:20:00;;;;;;;0.40;0.40;;;;;5.60;94340.00;;;;8345729;28;20226;-83
2022/04/01 11:24:04;;;;;;;0.40;0.40;;;;;5.70;94350.00;;;;8335386;28;20223;-82
2022/04/01 11:28:10;;;;;;;0.40;0.40;;;;;5.70;94342.00;;;;8346192;28;20331;-76
2022/04/01 11:32:19;;;;;;;0.40;0.40;;;;;5.70;94339.00;;;;8341175;28;20235;-75
2022/04/01 11:36:25;;;;;;;0.30;0.30;;;;;5.70;94336.00;;;;8345164;28;20249;-78
2022/04/01 11:40:30;;;;;;;0.50;0.50;;;;;5.90;94344.00;;;;8343474;28;20346;-75
2022/04/01 11:44:33;;;;;;;0.40;0.40;;;;;5.90;94361.00;;;;8344341;28;20683;-75
2022/04/01 11:48:37;;;;;;;0.40;0.40;;;;;5.60;94357.00;;;;8344360;28;20871;-75
2022/04/01 11:52:43;;;;;;;0.40;0.40;;;;;5.60;94356.00;;;;8343916;28;20244;-72
2022/04/01 11:56:46;;;;;;;0.37;0.37;;;;;5.70;94356.00;;;;8346342;28;20952;-72
2022/04/01 12:00:50;;;;;;;0.40;0.40;;;;;5.90;94353.00;;;;8344608;28;20229;-74
2022/04/01 12:04:53;;;;;;;0.30;0.30;;;;;5.90;94359.00;;;;8337993;28;20241;-72
2022/04/01 12:09:02;;;;;;;1.23;1.23;;;;;5.70;94365.00;;;;8344436;28;20232;-71
2022/04/01 12:13:07;;;;;;;0.50;0.50;;;;;5.70;94364.00;;;;8340028;28;20229;-71
2022/04/01 12:17:15;;;;;;;0.40;0.40;;;;;5.70;94358.00;;;;8343933;28;20286;-71
2022/04/01 12:21:20;;;;;;;0.40;0.40;;;;;5.80;94369.00;;;;8343382;28;20334;-72
2022/04/01 12:25:25;;;;;;;0.30;0.30;;;;;5.70;94366.00;;;;8341954;28;20313;-73
2022/04/01 12:29:30;;;;;;;0.30;0.30;;;;;5.60;94361.00;;;;8345802;28;20230;-71
2022/04/01 12:33:34;;;;;;;0.40;0.40;;;;;5.50;94376.00;;;;8343890;28;20228;-72
2022/04/01 12:37:37;;;;;;;0.40;0.40;;;;;5.30;94376.00;;;;8350743;28;20567;-70
2022/04/01 12:41:52;;;;;;;0.40;0.40;;;;;5.20;94373.00;;;;8346209;28;20617;-73
2022/04/01 12:45:59;;;;;;;0.40;0.40;;;;;5.10;94383.00;;;;8347262;28;20273;-73
2022/04/01 12:50:02;;;;;;;0.30;0.30;;;;;5.00;94375.00;;;;8347579;28;20223;-73
2022/04/01 12:54:08;;;;;;;0.57;0.57;;;;;5.00;94380.00;;;;8351411;28;20235;-73
2022/04/01 12:58:14;;;;;;;0.30;0.30;;;;;5.10;94387.00;;;;8349180;28;20231;-74
2022/04/01 13:02:20;;;;;;;0.40;0.40;;;;;5.10;94388.00;;;;8349446;28;20232;-73
2022/04/01 13:06:25;;;;;;;0.50;0.50;;;;;5.10;94380.00;;;;8349999;28;20313;-71
2022/04/01 13:10:33;;;;;;;0.40;0.40;;;;;5.10;94379.00;;;;8348359;28;20724;-72
2022/04/01 13:14:38;;;;;;;0.40;0.40;;;;;5.10;94376.00;;;;8347154;28;20895;-73
2022/04/01 13:18:41;;;;;;;0.40;0.40;;;;;5.20;94388.00;;;;8349398;28;20223;-73
2022/04/01 13:22:45;;;;;;;0.40;0.40;;;;;5.20;94393.00;;;;8345021;28;20312;-73
2022/04/01 13:26:49;;;;;;;0.40;0.40;;;;;5.30;94386.00;;;;8351729;28;20287;-72
2022/04/01 13:30:54;;;;;;;0.40;0.40;;;;;5.30;94394.00;;;;8350564;28;20711;-70
2022/04/01 13:35:01;;;;;;;1.03;0.80;;;;;5.30;94375.00;;;;8349794;28;20288;-71
2022/04/01 13:39:05;;;;;;;0.43;0.43;;;;;5.30;94387.00;;;;8344882;28;20232;-71
2022/04/01 13:43:09;;;;;;;0.40;0.40;;;;;5.30;94383.00;;;;8348925;28;20708;-70
2022/04/01 13:47:16;;;;;;;0.80;0.80;;;;;5.30;94378.00;;;;8350081;28;20256;-73
2022/04/01 13:51:20;;;;;;;0.40;0.40;;;;;5.30;94377.00;;;;8349922;28;20245;-71
2022/04/01 13:55:24;;;;;;;0.40;0.40;;;;;5.40;94392.00;;;;8340915;28;20239;-71
2022/04/01 13:59:27;;;;;;;0.50;0.50;;;;;5.50;94390.00;;;;8349737;28;20689;-71
2022/04/01 14:03:33;;;;;;;0.40;0.40;;;;;5.40;94377.00;;;;8350385;28;20238;-72
2022/04/01 14:07:37;;;;;;;0.30;0.30;;;;;5.50;94387.00;;;;8350776;28;20330;-71
2022/04/01 14:11:40;;;;;;;0.47;0.47;;;;;5.50;94383.00;;;;8350306;28;20217;-67
2022/04/01 14:15:44;;;;;;;0.40;0.40;;;;;5.40;94394.00;;;;8350377;28;20303;-67
2022/04/01 14:19:49;;;;;;;0.80;0.80;;;;;5.30;94407.00;;;;8347729;28;20238;-66
2022/04/01 14:23:52;;;;;;;1.07;1.07;;;;;5.20;94394.00;;;;8351077;28;20246;-67
2022/04/01 14:27:55;;;;;;;0.90;0.90;;;;;5.10;94400.00;;;;8346723;28;20278;-67
2022/04/01 14:31:58;;;;;;;1.57;1.47;;;;;5.00;94411.00;;;;8349514;28;20226;-68
2022/04/01 14:36:04;;;;;;;0.40;0.40;;;;;5.00;94415.00;;;;8344709;28;20285;-67
2022/04/01 14:40:09;;;;;;;5.00;0.83;;;;;5.00;94409.00;;;;8346833;28;20235;-66
2022/04/01 14:44:17;;;;;;;0.50;0.50;;;;;5.00;94418.00;;;;8346320;28;20233;-66
2022/04/01 14:48:21;;;;;;;1.03;1.03;;;;;5.00;94428.00;;;;8349255;28;20235;-66
2022/04/01 14:52:26;;;;;;;1.00;1.00;;;;;4.90;94427.00;;;;8347975;28;20224;-66
2022/04/01 14:56:29;;;;;;;0.40;0.40;;;;;4.80;94436.00;;;;8349210;28;20239;-66
2022/04/01 15:00:33;;;;;;;0.63;0.63;;;;;4.60;94436.00;;;;8341496;28;20236;-67
2022/04/01 15:04:38;;;;;;;0.40;0.40;;;;;4.50;94435.00;;;;8342543;28;20315;-72
2022/04/01 15:08:43;;;;;;;0.50;0.50;;;;;4.30;94439.00;;;;8341773;28;20224;-74
2022/04/01 15:12:48;;;;;;;0.73;0.73;;;;;4.20;94443.00;;;;8345161;28;20640;-74
2022/04/01 15:16:52;;;;;;;0.50;0.50;;;;;4.00;94452.00;;;;8346603;28;20230;-73
2022/04/01 15:20:55;;;;;;;0.90;0.90;;;;;3.90;94449.00;;;;8347479;28;20235;-73
2022/04/01 15:25:00;;;;;;;0.70;0.70;;;;;3.80;94456.00;;;;8347400;28;20239;-73
2022/04/01 15:29:03;;;;;;;0.50;0.50;;;;;3.70;94468.00;;;;8344570;28;20696;-71
2022/04/01 15:33:08;;;;;;;0.50;0.50;;;;;3.60;94463.00;;;;8347088;28;20230;-72
2022/04/01 15:37:15;;;;;;;0.40;0.40;;;;;3.40;94462.00;;;;8346955;28;20231;-72
2022/04/01 15:41:21;;;;;;;0.80;0.80;;;;;3.30;94464.00;;;;8346430;28;20237;-73
2022/04/01 15:45:29;;;;;;;0.40;0.40;;;;;3.30;94473.00;;;;8344248;28;20411;-72
2022/04/01 15:49:32;;;;;;;0.40;0.40;;;;;3.20;94476.00;;;;8341625;28;20245;-73
2022/04/01 15:53:41;;;;;;;0.40;0.40;;;;;3.10;94481.00;;;;8344299;28;20679;-73
2022/04/01 15:57:47;;;;;;;0.40;0.40;;;;;3.10;94478.00;;;;8344483;28;20306;-70
2022/04/01 16:01:54;;;;;;;1.40;0.67;;;;;3.00;94486.00;;;;8342631;28;20319;-71
2022/04/01 16:06:04;;;;;;;0.40;0.40;;;;;3.00;94490.00;;;;8346086;28;20308;-71
2022/04/01 16:10:12;;;;;;;0.87;0.87;;;;;3.00;94500.00;;;;8341960;28;20218;-72
2022/04/01 16:14:18;;;;;;;1.97;1.83;;;;;3.00;94504.00;;;;8340781;28;20232;-74
2022/04/01 16:18:42;;;;;;;0.40;0.40;;;;;3.10;94504.00;;;;8344465;28;20218;-74
2022/04/01 16:22:45;;;;;;;0.40;0.40;;;;;3.10;94520.00;;;;8342658;28;20232;-73
2022/04/01 16:26:49;;;;;;;0.40;0.40;;;;;3.10;94516.00;;;;8344632;28;20316;-73
2022/04/01 16:30:54;;;;;;;1.37;1.37;;;;;3.00;94531.00;;;;8342567;28;20225;-71
2022/04/01 16:34:58;;;;;;;0.40;0.40;;;;;3.00;94544.00;;;;8340992;28;20541;-70
2022/04/01 16:39:01;;;;;;;0.53;0.53;;;;;3.00;94542.00;;;;8341418;28;20227;-70
2022/04/01 16:43:04;;;;;;;0.30;0.30;;;;;3.00;94546.00;;;;8342650;28;20226;-71
2022/04/01 16:47:11;;;;;;;0.40;0.40;;;;;3.00;94540.00;;;;8344526;28;20237;-71
2022/04/01 16:51:14;;;;;;;0.40;0.40;;;;;3.00;94552.00;;;;8343447;28;20690;-72
2022/04/01 16:55:17;;;;;;;0.40;0.40;;;;;2.90;94552.00;;;;8343598;28;20719;-73
2022/04/01 16:59:21;;;;;;;0.50;0.50;;;;;2.90;94554.00;;;;8344082;28;20647;-75
2022/04/01 17:03:26;;;;;;;1.40;1.33;;;;;2.90;94544.00;;;;8341417;28;20313;-75
2022/04/01 17:16:10;;;;;;;0.50;0.50;;;;;2.80;94564.00;;;;8348153;28;20691;-73
2022/04/01 17:20:16;;;;;;;1.03;1.03;;;;;2.70;94574.00;;;;8349697;28;20703;-71
2022/04/01 17:24:19;;;;;;;1.17;1.17;;;;;2.70;94578.00;;;;8344482;28;20296;-72
2022/04/01 17:28:23;;;;;;;0.40;0.40;;;;;2.70;94575.00;;;;8349416;28;20230;-71
2022/04/01 17:32:28;;;;;;;4.27;1.17;;;;;2.60;94580.00;;;;8342483;28;20221;-73
2022/04/01 17:36:33;;;;;;;0.40;0.40;;;;;2.60;94584.00;;;;8346974;28;20233;-71
2022/04/01 17:40:37;;;;;;;0.67;0.67;;;;;2.60;94592.00;;;;8350072;28;20324;-72
2022/04/01 17:44:42;;;;;;;1.37;1.17;;;;;2.60;94589.00;;;;8349330;28;20252;-70
2022/04/01 17:48:46;;;;;;;0.40;0.40;;;;;2.60;94595.00;;;;8349897;28;20714;-71
2022/04/01 17:52:50;;;;;;;0.40;0.40;;;;;2.60;94602.00;;;;8350158;28;20585;-71
2022/04/01 17:56:56;;;;;;;0.40;0.40;;;;;2.50;94608.00;;;;8347765;28;20243;-72
2022/04/01 18:01:00;;;;;;;0.87;0.87;;;;;2.60;94614.00;;;;8330370;28;20239;-74
2022/04/01 18:05:04;;;;;;;0.40;0.40;;;;;2.60;94636.00;;;;8342001;28;20272;-73
2022/04/01 18:09:11;;;;;;;0.40;0.40;;;;;2.60;94638.00;;;;8349399;28;20769;-72
2022/04/01 18:13:17;;;;;;;1.80;1.27;;;;;2.50;94637.00;;;;8343849;28;20227;-72
2022/04/01 18:17:21;;;;;;;0.40;0.40;;;;;2.50;94639.00;;;;8342246;28;20228;-73
2022/04/01 18:21:24;;;;;;;3.50;2.00;;;;;2.50;94647.00;;;;8347901;28;20243;-74
2022/04/01 18:25:29;;;;;;;0.63;0.63;;;;;2.50;94649.00;;;;8346964;28;20547;-73
2022/04/01 18:29:37;;;;;;;0.67;0.67;;;;;2.50;94658.00;;;;8344880;28;20976;-70
2022/04/01 18:33:46;;;;;;;23.63;11.47;;;;;2.50;94649.00;;;;8348593;28;20613;-72
2022/04/01 18:37:50;;;;;;;17.07;9.00;;;;;2.40;94658.00;;;;8346805;28;20314;-71
2022/04/01 18:42:02;;;;;;;42.70;16.97;;;;;2.40;94665.00;;;;8341081;28;20247;-72
2022/04/01 18:46:05;;;;;;;13.30;7.50;;;;;2.40;94678.00;;;;8341838;28;20230;-71
2022/04/01 18:50:10;;;;;;;26.07;11.70;;;;;2.30;94675.00;;;;8344802;28;20236;-71
2022/04/01 18:54:14;;;;;;;20.83;10.57;;;;;2.30;94679.00;;;;8346736;28;20319;-72
2022/04/01 18:58:20;;;;;;;21.07;8.60;;;;;2.30;94689.00;;;;8344837;28;20241;-71
2022/04/01 19:02:35;;;;;;;24.37;11.43;;;;;2.30;94680.00;;;;8344928;28;20581;-69
2022/04/01 19:06:43;;;;;;;31.77;14.07;;;;;2.30;94695.00;;;;8335725;28;20235;-70
2022/04/01 19:10:56;;;;;;;30.50;12.53;;;;;2.30;94695.00;;;;8341289;28;20245;-71
2022/04/01 19:15:02;;;;;;;23.70;10.07;;;;;2.30;94698.00;;;;8344765;28;20267;-71
2022/04/01 19:19:06;;;;;;;23.80;10.87;;;;;2.30;94697.00;;;;8345351;28;20305;-69
2022/04/01 19:23:10;;;;;;;41.90;16.37;;;;;2.30;94699.00;;;;8339274;28;20233;-70
2022/04/01 19:27:14;;;;;;;31.47;14.10;;;;;2.30;94714.00;;;;8344802;28;20279;-68
2022/04/01 19:31:19;;;;;;;28.57;11.93;;;;;2.30;94718.00;;;;8346328;28;20873;-68
2022/04/01 19:35:24;;;;;;;18.83;7.93;;;;;2.20;94713.00;;;;8345221;28;20252;-69
2022/04/01 19:39:27;;;;;;;21.43;10.47;;;;;2.20;94717.00;;;;8341431;28;20219;-68
2022/04/01 19:43:30;;;;;;;63.20;19.60;;;;;2.20;94723.00;;;;8333692;28;20219;-70
2022/04/01 19:47:35;;;;;;;29.57;11.50;;;;;2.20;94729.00;;;;8338112;28;20222;-68
2022/04/01 19:51:40;;;;;;;38.97;14.87;;;;;2.20;94721.00;;;;8333668;28;20217;-69
2022/04/01 19:55:44;;;;;;;15.30;8.27;;;;;2.20;94730.00;;;;8340811;28;20262;-69
2022/04/01 19:59:47;;;;;;;34.40;13.17;;;;;2.20;94734.00;;;;8339461;28;20228;-69
2022/04/01 20:03:52;;;;;;;27.33;12.97;;;;;2.20;94740.00;;;;8339258;28;20229;-69
2022/04/01 20:07:55;;;;;;;30.50;12.27;;;;;2.20;94748.00;;;;8330991;28;20686;-68
2022/04/01 20:11:59;;;;;;;17.00;9.33;;;;;2.20;94754.00;;;;8333643;28;20229;-68
2022/04/01 20:16:02;;;;;;;22.40;8.90;;;;;2.20;94758.00;;;;8338149;28;20246;-68
2022/04/01 20:20:09;;;;;;;17.63;9.27;;;;;2.20;94749.00;;;;8333243;28;20228;-69
2022/04/01 20:24:12;;;;;;;20.07;9.23;;;;;2.10;94762.00;;;;8332930;28;20235;-68
2022/04/01 20:28:16;;;;;;;13.60;7.50;;;;;2.10;94755.00;;;;8336878;28;20319;-69
2022/04/01 20:32:19;;;;;;;18.23;8.63;;;;;2.10;94756.00;;;;8335859;28;20222;-67
2022/04/01 20:36:24;;;;;;;15.63;8.10;;;;;2.10;94759.00;;;;8338891;28;20235;-67
2022/04/01 20:40:27;;;;;;;6.20;4.77;;;;;2.10;94770.00;;;;8341380;28;20332;-67
2022/04/01 20:44:31;;;;;;;19.80;8.93;;;;;2.10;94766.00;;;;8338576;28;20288;-67
2022/04/01 20:48:34;;;;;;;12.03;7.93;;;;;2.00;94778.00;;;;8340797;28;20767;-68
2022/04/01 20:52:39;;;;;;;19.17;9.90;;;;;2.00;94771.00;;;;8341761;28;20220;-67
2022/04/01 20:56:44;;;;;;;19.13;8.80;;;;;2.00;94780.00;;;;8333047;28;20958;-67